SBI6404 UHWW-UIII
Flight info
| Callsign | SBI6404 |
|---|---|
| Flight time | N/A |
| Altitude | 36000 |
| Route | N0470F350 DCT DOLMA B356 TD B355 HAB/N0475F360 N992 GU G229 NIKTO P873 KUDAR A807 USONA DCT |
| Aircraft | B763/H-SADE2FGHIJ1RWXY/LB1 |
Departure
| Time | 2026-04-18 13:25 |
|---|---|
| Airport | Vladivostok International Airport (UHWW) |
Arrival
| Time | N/A |
|---|---|
| Airport | Irkutsk International Airport (UIII) |
| Time | Latitude | Longitude | Altitude | Speed | Heading |
|---|---|---|---|---|---|
| 2026-04-18 13:03 | 43.39932 | 132.16952 | 56 ft | 0 kts | 151° |
| 2026-04-18 13:12 | 43.39941 | 132.16946 | 55 ft | 2 kts | 148° |
| 2026-04-18 13:12 | 43.39954 | 132.16934 | 55 ft | 2 kts | 148° |
| 2026-04-18 13:12 | 43.39967 | 132.16923 | 55 ft | 2 kts | 149° |
| 2026-04-18 13:13 | 43.39980 | 132.16913 | 55 ft | 2 kts | 150° |
| 2026-04-18 13:13 | 43.39994 | 132.16908 | 55 ft | 2 kts | 192° |
| 2026-04-18 13:13 | 43.40007 | 132.16917 | 55 ft | 2 kts | 227° |
| 2026-04-18 13:13 | 43.40015 | 132.16934 | 55 ft | 2 kts | 244° |
| 2026-04-18 13:14 | 43.40017 | 132.16940 | 55 ft | 0 kts | 242° |
| 2026-04-18 13:16 | 43.40008 | 132.16921 | 55 ft | 4 kts | 240° |
| 2026-04-18 13:16 | 43.39986 | 132.16869 | 55 ft | 7 kts | 239° |
| 2026-04-18 13:16 | 43.39961 | 132.16809 | 55 ft | 6 kts | 239° |
| 2026-04-18 13:17 | 43.39941 | 132.16760 | 55 ft | 5 kts | 239° |
| 2026-04-18 13:17 | 43.39923 | 132.16719 | 55 ft | 4 kts | 239° |
| 2026-04-18 13:17 | 43.39909 | 132.16681 | 55 ft | 4 kts | 243° |
| 2026-04-18 13:17 | 43.39893 | 132.16637 | 55 ft | 5 kts | 243° |
| 2026-04-18 13:18 | 43.39874 | 132.16586 | 55 ft | 6 kts | 243° |
| 2026-04-18 13:18 | 43.39855 | 132.16539 | 55 ft | 6 kts | 240° |
| 2026-04-18 13:18 | 43.39826 | 132.16469 | 55 ft | 10 kts | 240° |
| 2026-04-18 13:18 | 43.39782 | 132.16365 | 55 ft | 14 kts | 239° |
| 2026-04-18 13:19 | 43.39739 | 132.16229 | 55 ft | 17 kts | 240° |
| 2026-04-18 13:19 | 43.39741 | 132.16165 | 55 ft | 7 kts | 332° |
| 2026-04-18 13:19 | 43.39803 | 132.16157 | 55 ft | 11 kts | 353° |
| 2026-04-18 13:19 | 43.39885 | 132.16121 | 55 ft | 13 kts | 316° |
| 2026-04-18 13:20 | 43.39867 | 132.15997 | 55 ft | 16 kts | 242° |
| 2026-04-18 13:20 | 43.39803 | 132.15832 | 55 ft | 22 kts | 241° |
| 2026-04-18 13:20 | 43.39717 | 132.15619 | 55 ft | 28 kts | 241° |
| 2026-04-18 13:20 | 43.39610 | 132.15355 | 55 ft | 34 kts | 241° |
| 2026-04-18 13:21 | 43.39487 | 132.15048 | 55 ft | 38 kts | 242° |
| 2026-04-18 13:21 | 43.39363 | 132.14741 | 55 ft | 35 kts | 240° |
| 2026-04-18 13:21 | 43.39246 | 132.14458 | 55 ft | 32 kts | 239° |
| 2026-04-18 13:21 | 43.39143 | 132.14195 | 55 ft | 30 kts | 239° |
| 2026-04-18 13:22 | 43.39048 | 132.13957 | 55 ft | 27 kts | 242° |
| 2026-04-18 13:22 | 43.38961 | 132.13742 | 55 ft | 24 kts | 238° |
| 2026-04-18 13:22 | 43.38884 | 132.13548 | 55 ft | 21 kts | 239° |
| 2026-04-18 13:22 | 43.38813 | 132.13377 | 55 ft | 19 kts | 240° |
| 2026-04-18 13:23 | 43.38782 | 132.13220 | 55 ft | 16 kts | 299° |
| 2026-04-18 13:23 | 43.38865 | 132.13133 | 55 ft | 13 kts | 331° |
| 2026-04-18 13:23 | 43.38944 | 132.13112 | 55 ft | 5 kts | 33° |
| 2026-04-18 13:23 | 43.38950 | 132.13121 | 55 ft | 1 kts | 58° |
| 2026-04-18 13:24 | 43.38966 | 132.13161 | 55 ft | 21 kts | 60° |
| 2026-04-18 13:24 | 43.39116 | 132.13531 | 55 ft | 67 kts | 60° |
| 2026-04-18 13:24 | 43.39422 | 132.14288 | 55 ft | 110 kts | 61° |
| 2026-04-18 13:24 | 43.39856 | 132.15363 | 56 ft | 148 kts | 62° |
| 2026-04-18 13:25 | 43.40387 | 132.16715 | 209 ft | 164 kts | 63° |
| 2026-04-18 13:25 | 43.40932 | 132.18097 | 542 ft | 168 kts | 63° |
| 2026-04-18 13:25 | 43.41486 | 132.19496 | 965 ft | 164 kts | 63° |
| 2026-04-18 13:25 | 43.42039 | 132.20894 | 1205 ft | 170 kts | 62° |
| 2026-04-18 13:26 | 43.42596 | 132.22302 | 1629 ft | 168 kts | 63° |
| 2026-04-18 13:26 | 43.43151 | 132.23709 | 1984 ft | 170 kts | 63° |
| 2026-04-18 13:26 | 43.43716 | 132.25143 | 2345 ft | 172 kts | 63° |
| 2026-04-18 13:26 | 43.44292 | 132.26605 | 2711 ft | 173 kts | 62° |
| 2026-04-18 13:27 | 43.44866 | 132.28064 | 3066 ft | 175 kts | 62° |